Time;durP1;ratioP1;P1;durP2;ratioP2;P2;SDS_P1;SDS_P2;PMS_P1;PMS_P2;Temp;Humidity;BMP_temperature;BMP_pressure;BME280_temperature;BME280_humidity;BME280_pressure;Samples;Min_cycle;Max_cycle;Signal;HPM_P1;HPM_P2
2022/12/04 00:01:12;;;;;;;47.73;18.07;;;;;;;-142.75;100.00;79004.06;5004070;28;20133;-68
2022/12/04 00:03:39;;;;;;;50.73;18.67;;;;;;;-142.75;100.00;79002.09;5003518;28;20117;-68
2022/12/04 00:06:24;;;;;;;;;;;;;;;-142.75;100.00;78994.22;5003102;28;20561;-67
2022/12/04 00:08:50;;;;;;;39.57;16.97;;;;;;;-142.75;100.00;78990.28;5004005;28;20630;-68
2022/12/04 00:11:23;;;;;;;44.10;16.97;;;;;;;-142.75;100.00;78984.38;5004406;28;20020;-68
2022/12/04 00:13:48;;;;;;;44.80;18.27;;;;;;;-142.75;100.00;78984.38;5001787;28;20109;-69
2022/12/04 00:16:17;;;;;;;48.83;18.17;;;;;;;-142.75;100.00;79004.06;5002796;28;20272;-68
2022/12/04 00:18:43;;;;;;;44.43;17.23;;;;;;;-142.75;100.00;78982.41;5003789;28;20059;-68
2022/12/04 00:21:11;;;;;;;52.55;17.42;;;;;;;-142.75;100.00;78980.44;5003779;28;20426;-68
2022/12/04 00:23:38;;;;;;;41.80;16.83;;;;;;;-142.75;100.00;78974.53;5001712;28;20164;-69
2022/12/04 00:26:05;;;;;;;;;;;;;;;-142.75;100.00;79004.06;5000365;28;20414;-69
2022/12/04 00:28:32;;;;;;;43.40;16.95;;;;;;;-142.75;100.00;78998.16;4993762;28;19943;-68
2022/12/04 00:30:57;;;;;;;40.83;17.17;;;;;;;-142.75;100.00;78998.16;5001399;28;20198;-67
2022/12/04 00:33:23;;;;;;;47.72;18.98;;;;;;;-142.75;100.00;78980.44;5002839;28;20415;-68
2022/12/04 00:35:56;;;;;;;43.38;18.85;;;;;;;-142.75;100.00;78992.25;5004029;28;20135;-68
2022/12/04 00:38:21;;;;;;;42.03;16.70;;;;;;;-142.75;100.00;78984.38;5003342;28;20043;-69
2022/12/04 00:40:49;;;;;;;49.40;18.92;;;;;;;-142.75;100.00;78974.53;5003397;28;20430;-68
2022/12/04 00:43:14;;;;;;;43.20;17.10;;;;;;;-142.75;100.00;79004.06;5001861;28;20032;-68
2022/12/04 00:45:40;;;;;;;40.03;17.05;;;;;;;-142.75;100.00;79013.91;5002640;28;20332;-66
2022/12/04 00:48:05;;;;;;;45.10;17.50;;;;;;;-142.75;100.00;79011.94;4999634;28;20370;-68
2022/12/04 00:50:31;;;;;;;46.08;17.90;;;;;;;-142.75;100.00;79011.94;5026954;22;20364;-67
2022/12/04 00:52:57;;;;;;;;;;;;;;;-142.75;100.00;79015.88;5002503;28;20649;-67
2022/12/04 00:55:23;;;;;;;47.00;17.27;;;;;;;-142.75;100.00;79006.03;5005004;28;19908;-66
2022/12/04 00:57:49;;;;;;;42.97;17.77;;;;;;;-142.75;100.00;79008.00;5007502;28;20036;-66
2022/12/04 01:00:15;;;;;;;44.53;19.45;;;;;;;-142.75;100.00;79006.03;5004037;28;20367;-67
2022/12/04 01:02:40;;;;;;;49.15;18.08;;;;;;;-142.75;100.00;79011.94;5005409;28;20320;-66
2022/12/04 01:05:06;;;;;;;41.85;16.27;;;;;;;-142.75;100.00;79027.69;5003613;28;20301;-66
2022/12/04 01:07:32;;;;;;;36.95;14.75;;;;;;;-142.75;100.00;79025.72;5004156;28;20321;-67
2022/12/04 01:09:57;;;;;;;50.65;18.15;;;;;;;-142.75;100.00;79035.59;5004855;28;20321;-66
2022/12/04 01:12:23;;;;;;;47.50;17.67;;;;;;;-142.75;100.00;79025.72;5001053;28;20507;-66
2022/12/04 01:14:48;;;;;;;47.42;17.98;;;;;;;-142.75;100.00;79035.59;5003870;28;20366;-66
2022/12/04 01:17:14;;;;;;;49.55;18.15;;;;;;;-142.75;100.00;79043.47;5003299;28;20330;-66
2022/12/04 01:19:39;;;;;;;46.75;17.38;;;;;;;-142.75;100.00;79027.69;5002728;28;20329;-66
2022/12/04 01:22:05;;;;;;;44.78;19.02;;;;;;;-142.75;100.00;79031.66;5002892;28;20029;-66
2022/12/04 01:24:30;;;;;;;48.72;18.85;;;;;;;-142.75;100.00;79027.69;5003325;28;20344;-66
2022/12/04 01:26:56;;;;;;;47.75;18.02;;;;;;;-142.75;100.00;79021.78;5003412;28;20047;-67
2022/12/04 01:29:21;;;;;;;48.47;18.35;;;;;;;-142.75;100.00;79027.69;5003254;28;20484;-67
2022/12/04 01:31:47;;;;;;;44.30;17.13;;;;;;;-142.75;100.00;79015.88;5003083;28;20471;-65
2022/12/04 01:34:12;;;;;;;52.38;19.40;;;;;;;-142.75;100.00;79035.59;5003055;28;20043;-67
2022/12/04 01:36:38;;;;;;;46.33;19.73;;;;;;;-142.75;100.00;79013.91;5001503;28;20317;-66
2022/12/04 01:39:03;;;;;;;42.78;17.42;;;;;;;-142.75;100.00;78998.16;5003130;28;20313;-66
2022/12/04 01:41:31;;;;;;;45.55;18.33;;;;;;;-142.75;100.00;79011.94;5003251;28;20142;-66
2022/12/04 01:44:10;;;;;;;47.23;19.80;;;;;;;-142.75;100.00;79008.00;5002864;28;20027;-66
2022/12/04 01:46:36;;;;;;;50.70;17.83;;;;;;;-142.75;100.00;78994.22;5005070;28;20038;-66
2022/12/04 01:49:02;;;;;;;54.70;20.65;;;;;;;-142.75;100.00;79008.00;5002964;28;20017;-66
2022/12/04 01:51:29;;;;;;;;;;;;;;;-142.75;100.00;79002.09;5002778;28;20042;-66
2022/12/04 01:53:58;;;;;;;45.97;16.83;;;;;;;-142.75;100.00;78990.28;5002661;28;19985;-67
2022/12/04 01:56:31;;;;;;;46.73;19.57;;;;;;;-142.75;100.00;78992.25;5002687;28;20020;-66
2022/12/04 01:59:00;;;;;;;47.43;18.80;;;;;;;-142.75;100.00;78984.38;5003186;28;20139;-65
2022/12/04 02:01:30;;;;;;;53.77;19.67;;;;;;;-142.75;100.00;79027.69;5002248;28;20016;-67
2022/12/04 02:03:57;;;;;;;52.07;19.30;;;;;;;-142.75;100.00;79015.88;5002686;28;20633;-66
2022/12/04 02:06:23;;;;;;;43.37;18.77;;;;;;;-142.75;100.00;79002.09;5000026;28;20105;-67
2022/12/04 02:08:49;;;;;;;43.83;18.70;;;;;;;-142.75;100.00;79013.91;5003277;28;20338;-66
2022/12/04 02:11:20;;;;;;;54.38;20.15;;;;;;;-142.75;100.00;78998.16;5002482;28;20418;-66
2022/12/04 02:14:04;;;;;;;43.33;18.83;;;;;;;-142.75;100.00;78994.22;5002265;28;20094;-66
2022/12/04 02:16:35;;;;;;;56.53;20.77;;;;;;;-142.75;100.00;78996.19;4996795;28;20024;-65
2022/12/04 02:19:44;;;;;;;51.03;20.80;;;;;;;-142.75;100.00;78996.19;5000853;28;20052;-64
2022/12/04 02:22:44;;;;;;;42.60;18.90;;;;;;;-142.75;100.00;78984.38;4996938;28;20034;-66
2022/12/04 02:25:25;;;;;;;50.77;19.00;;;;;;;-142.75;100.00;78988.31;5000642;28;20055;-65
2022/12/04 02:28:00;;;;;;;49.93;20.43;;;;;;;-142.75;100.00;78986.34;5001877;28;20028;-65
2022/12/04 02:30:27;;;;;;;49.33;19.73;;;;;;;-142.75;100.00;78984.38;4999643;28;20043;-64
2022/12/04 02:33:06;;;;;;;49.27;19.47;;;;;;;-142.75;100.00;78988.31;5000163;28;20116;-65
2022/12/04 02:35:58;;;;;;;46.20;19.27;;;;;;;-142.75;100.00;78982.41;5002209;28;20043;-65
2022/12/04 02:38:36;;;;;;;48.03;19.23;;;;;;;-142.75;100.00;78984.38;5001562;28;20028;-64
2022/12/04 02:41:25;;;;;;;45.83;18.47;;;;;;;-142.75;100.00;78992.25;5001663;28;20155;-65
2022/12/04 02:44:00;;;;;;;52.40;20.13;;;;;;;-142.75;100.00;78994.22;4999912;28;20025;-65
2022/12/04 02:46:37;;;;;;;51.10;19.23;;;;;;;-142.75;100.00;78984.38;5002784;28;20028;-65
2022/12/04 02:49:10;;;;;;;54.90;20.03;;;;;;;-142.75;100.00;78994.22;5001682;28;20060;-65
2022/12/04 02:51:39;;;;;;;46.97;18.97;;;;;;;-142.75;100.00;79013.91;5001564;28;20047;-64
2022/12/04 02:54:13;;;;;;;56.20;20.87;;;;;;;-142.75;100.00;79004.06;4994565;28;20074;-65
2022/12/04 02:56:43;;;;;;;50.73;20.20;;;;;;;-142.75;100.00;79023.75;5001110;28;20622;-65
2022/12/04 02:59:25;;;;;;;64.23;22.10;;;;;;;-142.75;100.00;78986.34;5003225;28;20047;-65
2022/12/04 03:01:55;;;;;;;50.53;20.37;;;;;;;-142.75;100.00;79002.09;5001565;28;20017;-65
2022/12/04 03:04:24;;;;;;;47.43;19.90;;;;;;;-142.75;100.00;79011.94;5002820;28;20043;-65
2022/12/04 03:06:55;;;;;;;51.70;20.43;;;;;;;-142.75;100.00;79002.09;5001775;28;20028;-68
2022/12/04 03:09:40;;;;;;;53.03;20.00;;;;;;;-142.75;100.00;79000.13;5001954;28;20587;-65
2022/12/04 03:12:13;;;;;;;53.77;21.10;;;;;;;-142.75;100.00;79000.13;5001838;28;20055;-66
2022/12/04 03:14:58;;;;;;;54.90;20.73;;;;;;;-142.75;100.00;79011.94;5001637;28;20132;-66
2022/12/04 03:17:32;;;;;;;55.87;21.43;;;;;;;-142.75;100.00;78984.38;5001568;28;20016;-65
2022/12/04 03:20:04;;;;;;;48.03;19.63;;;;;;;-142.75;100.00;78984.38;5001502;28;20028;-66
2022/12/04 03:22:32;;;;;;;51.53;19.77;;;;;;;-142.75;100.00;78976.50;5002509;28;20147;-65
2022/12/04 03:24:58;;;;;;;50.23;20.13;;;;;;;-142.75;100.00;78968.63;5001454;28;20094;-65
2022/12/04 03:27:29;;;;;;;52.75;20.17;;;;;;;-142.75;100.00;78966.66;5001529;28;20558;-65
2022/12/04 03:30:06;;;;;;;54.50;20.23;;;;;;;-142.75;100.00;78970.59;5002536;28;20032;-65
2022/12/04 03:32:56;;;;;;;52.37;20.03;;;;;;;-142.75;100.00;78962.69;5001499;28;20055;-67
2022/12/04 03:35:48;;;;;;;53.60;20.97;;;;;;;-142.75;100.00;78960.72;5005002;28;20024;-65
2022/12/04 03:38:29;;;;;;;53.23;20.30;;;;;;;-142.75;100.00;78960.72;5001553;28;20029;-65
2022/12/04 03:41:15;;;;;;;53.80;19.17;;;;;;;-142.75;100.00;78962.69;5001079;28;20152;-65
2022/12/04 03:43:49;;;;;;;60.15;20.23;;;;;;;-142.75;100.00;78974.53;5005123;28;20024;-65
2022/12/04 03:46:25;;;;;;;55.03;21.57;;;;;;;-142.75;100.00;78974.53;5004181;28;20024;-68
2022/12/04 03:49:01;;;;;;;50.90;20.85;;;;;;;-142.75;100.00;78980.44;5004657;28;20032;-65
2022/12/04 03:51:40;;;;;;;49.20;20.20;;;;;;;-142.75;100.00;78968.63;5005492;28;20025;-65
2022/12/04 03:54:15;;;;;;;57.50;21.87;;;;;;;-142.75;100.00;78964.69;5000441;28;20024;-65
2022/12/04 03:56:51;;;;;;;49.80;20.93;;;;;;;-142.75;100.00;78976.50;5005445;28;20033;-65
2022/12/04 03:59:25;;;;;;;42.22;15.13;;;;;;;-142.75;100.00;78960.72;5005178;28;20135;-65
2022/12/04 04:01:54;;;;;;;57.63;20.47;;;;;;;-142.75;100.00;78943.00;5004986;28;20031;-65
2022/12/04 04:04:27;;;;;;;51.90;21.60;;;;;;;-142.75;100.00;78956.78;5004675;28;20024;-65
2022/12/04 04:06:58;;;;;;;51.83;20.10;;;;;;;-142.75;100.00;78941.03;5005077;28;20051;-65
2022/12/04 04:09:29;;;;;;;50.67;20.27;;;;;;;-142.75;100.00;78944.97;5004730;28;20029;-65
2022/12/04 04:12:01;;;;;;;53.57;22.20;;;;;;;-142.75;100.00;78952.84;5002697;28;20028;-65
2022/12/04 04:26:06;;;;;;;37.70;16.67;;;;;;;-142.75;100.00;78958.75;5003716;28;20047;-66
2022/12/04 04:28:39;;;;;;;45.33;19.37;;;;;;;-142.75;100.00;78958.75;5004809;28;20044;-66
2022/12/04 04:31:25;;;;;;;52.23;20.10;;;;;;;-142.75;100.00;78952.84;5004375;28;20861;-64
2022/12/04 04:33:50;;;;;;;53.93;21.70;;;;;;;-142.75;100.00;78964.69;5003834;28;20059;-65
2022/12/04 04:37:01;;;;;;;59.30;22.50;;;;;;;-142.75;100.00;78966.66;5004188;28;20473;-65
2022/12/04 04:39:37;;;;;;;47.97;20.67;;;;;;;-142.75;100.00;78944.97;4984653;28;20538;-65
2022/12/04 04:42:23;;;;;;;36.38;15.77;;;;;;;-142.75;100.00;78956.78;5003914;28;20024;-66
2022/12/04 04:45:05;;;;;;;35.83;15.02;;;;;;;-142.75;100.00;78952.84;5000931;28;20075;-66
2022/12/04 04:47:34;;;;;;;51.90;20.80;;;;;;;-142.75;100.00;78952.84;5004083;28;20110;-66
2022/12/04 04:50:03;;;;;;;55.53;21.73;;;;;;;-142.75;100.00;78962.69;5002260;28;20032;-65
2022/12/04 04:52:30;;;;;;;54.37;21.43;;;;;;;-142.75;100.00;78941.03;5005191;28;20020;-66
2022/12/04 04:54:59;;;;;;;52.60;20.57;;;;;;;-142.75;100.00;78941.03;5004552;28;20036;-66
2022/12/04 04:57:30;;;;;;;53.77;22.10;;;;;;;-142.75;100.00;78958.75;5001711;28;20020;-66
2022/12/04 04:59:55;;;;;;;52.40;20.47;;;;;;;-142.75;100.00;78960.72;5001769;28;20028;-65
2022/12/04 05:02:21;;;;;;;56.20;21.70;;;;;;;-142.75;100.00;78944.97;5003417;28;20433;-66
2022/12/04 05:04:46;;;;;;;50.15;22.10;;;;;;;-142.75;100.00;78952.84;5001895;28;20306;-66
2022/12/04 05:07:12;;;;;;;49.83;20.75;;;;;;;-142.75;100.00;78954.81;5001852;28;20302;-66
2022/12/04 05:09:37;;;;;;;53.38;22.27;;;;;;;-142.75;100.00;78946.94;5003590;28;20163;-66
2022/12/04 05:12:03;;;;;;;48.88;21.23;;;;;;;-142.75;100.00;78962.69;5003990;28;20309;-66
2022/12/04 05:14:28;;;;;;;55.83;22.05;;;;;;;-142.75;100.00;78974.53;5003411;28;20423;-66
2022/12/04 05:16:54;;;;;;;51.10;21.90;;;;;;;-142.75;100.00;78952.84;5004138;28;20478;-65
2022/12/04 05:22:03;;;;;;;53.53;21.40;;;;;;;-142.75;100.00;78952.84;5000396;28;20321;-66
2022/12/04 05:24:29;;;;;;;58.30;21.63;;;;;;;-142.75;100.00;78960.72;5003681;28;20615;-65
2022/12/04 05:26:54;;;;;;;55.65;23.63;;;;;;;-142.75;100.00;78958.75;5003756;28;20498;-66
2022/12/04 05:29:20;;;;;;;53.03;19.73;;;;;;;-142.75;100.00;78948.91;5003395;28;20320;-65
2022/12/04 05:31:45;;;;;;;54.70;22.00;;;;;;;-142.75;100.00;78962.69;5004278;28;20313;-65
2022/12/04 05:34:11;;;;;;;54.67;21.05;;;;;;;-142.75;100.00;78939.06;5003431;28;20035;-66
2022/12/04 05:36:36;;;;;;;54.08;21.25;;;;;;;-142.75;100.00;78992.25;5001195;28;20322;-66
2022/12/04 05:39:02;;;;;;;54.33;22.00;;;;;;;-142.75;100.00;78964.69;5003596;28;20036;-66
2022/12/04 05:41:27;;;;;;;52.85;20.58;;;;;;;-142.75;100.00;78946.94;5002638;28;20487;-65
2022/12/04 05:43:53;;;;;;;47.10;19.15;;;;;;;-142.75;100.00;78937.09;5004642;28;20418;-65
2022/12/04 05:46:18;;;;;;;54.08;22.40;;;;;;;-142.75;100.00;78952.84;5001216;28;20383;-64
2022/12/04 05:48:44;;;;;;;50.65;21.52;;;;;;;-142.75;100.00;78962.69;5004497;28;20340;-66
2022/12/04 05:51:10;;;;;;;50.83;21.50;;;;;;;-142.75;100.00;78956.78;5002754;28;20317;-66
2022/12/04 05:53:35;;;;;;;52.20;21.52;;;;;;;-142.75;100.00;78952.84;5004410;28;20334;-65
2022/12/04 05:56:03;;;;;;;62.40;22.95;;;;;;;-142.75;100.00;78948.91;5003971;28;20032;-65
2022/12/04 05:58:29;;;;;;;51.83;21.37;;;;;;;-142.75;100.00;78943.00;4999958;28;20145;-65
2022/12/04 06:00:55;;;;;;;51.15;20.00;;;;;;;-142.75;100.00;78943.00;5002637;28;20309;-64
2022/12/04 06:03:21;;;;;;;53.22;23.48;;;;;;;-142.75;100.00;78954.81;5002664;28;20305;-65
2022/12/04 06:05:46;;;;;;;48.55;19.08;;;;;;;-142.75;100.00;78958.75;4997620;28;20314;-66
2022/12/04 06:08:12;;;;;;;54.05;21.27;;;;;;;-142.75;100.00;78956.78;5002389;28;20292;-65
2022/12/04 06:10:38;;;;;;;53.75;21.05;;;;;;;-142.75;100.00;78954.81;5002337;28;20097;-65
2022/12/04 06:13:05;;;;;;;56.35;22.67;;;;;;;-142.75;100.00;78941.03;5002497;28;20025;-65
2022/12/04 06:15:30;;;;;;;57.23;22.57;;;;;;;-142.75;100.00;78943.00;5002328;28;20035;-65
2022/12/04 06:17:55;;;;;;;51.10;21.67;;;;;;;-142.75;100.00;78944.97;5003435;28;20426;-65
2022/12/04 06:20:21;;;;;;;50.45;20.52;;;;;;;-142.75;100.00;78948.91;5002166;28;20309;-65
2022/12/04 06:22:47;;;;;;;51.60;20.58;;;;;;;-142.75;100.00;78944.97;5002577;28;20460;-65
2022/12/04 06:25:12;;;;;;;55.70;22.15;;;;;;;-142.75;100.00;78966.66;5000255;28;20284;-65
2022/12/04 06:27:38;;;;;;;48.90;20.63;;;;;;;-142.75;100.00;78960.72;5002415;28;20346;-66
2022/12/04 06:30:04;;;;;;;54.80;21.90;;;;;;;-142.75;100.00;78958.75;5002739;28;20399;-66
2022/12/04 06:32:29;;;;;;;55.58;20.33;;;;;;;-142.75;100.00;78948.91;5002321;28;20024;-65
2022/12/04 06:34:55;;;;;;;54.33;21.55;;;;;;;-142.75;100.00;78952.84;5002034;28;20317;-65
2022/12/04 06:37:22;;;;;;;54.97;21.55;;;;;;;-142.75;100.00;78946.94;5002218;28;20325;-65
2022/12/04 06:39:48;;;;;;;55.57;20.57;;;;;;;-142.75;100.00;78944.97;5001693;28;20097;-65
2022/12/04 06:42:14;;;;;;;48.63;20.63;;;;;;;-142.75;100.00;78950.88;5001964;28;20407;-65
2022/12/04 06:44:40;;;;;;;56.37;21.33;;;;;;;-142.75;100.00;78946.94;5002276;28;20054;-66
2022/12/04 06:47:05;;;;;;;52.78;20.48;;;;;;;-142.75;100.00;78952.84;5001760;28;20349;-66
2022/12/04 06:49:31;;;;;;;53.58;21.70;;;;;;;-142.75;100.00;78958.75;5003066;28;20336;-64
2022/12/04 06:51:56;;;;;;;56.75;22.38;;;;;;;-142.75;100.00;78960.72;5002993;22;20053;-66
2022/12/04 06:54:22;;;;;;;53.20;21.00;;;;;;;-142.75;100.00;78968.63;4960413;28;20048;-67
2022/12/04 06:56:48;;;;;;;57.13;21.95;;;;;;;-142.75;100.00;78968.63;4962731;28;20501;-67
2022/12/04 06:59:14;;;;;;;55.20;21.03;;;;;;;-142.75;100.00;78946.94;4962028;28;20546;-67
2022/12/04 07:01:39;;;;;;;57.15;21.88;;;;;;;-142.75;100.00;78933.16;4962599;28;20123;-67
2022/12/04 07:04:05;;;;;;;49.75;21.17;;;;;;;-142.75;100.00;78970.59;4962553;28;20354;-67
2022/12/04 07:06:32;;;;;;;54.58;22.05;;;;;;;-142.75;100.00;78946.94;4963145;28;20343;-66
2022/12/04 07:09:04;;;;;;;55.00;22.87;;;;;;;-142.75;100.00;78958.75;4963155;28;20260;-65
2022/12/04 07:11:29;;;;;;;55.40;20.60;;;;;;;-142.75;100.00;78972.56;4965590;28;20211;-65
2022/12/04 07:13:55;;;;;;;55.20;20.77;;;;;;;-142.75;100.00;78954.81;4966626;28;20432;-65
2022/12/04 07:16:22;;;;;;;54.42;20.33;;;;;;;-142.75;100.00;78972.56;4966713;28;20320;-65
2022/12/04 07:18:49;;;;;;;55.07;22.50;;;;;;;-142.75;100.00;78948.91;4965995;28;20044;-65
2022/12/04 07:21:17;;;;;;;53.33;20.37;;;;;;;-142.75;100.00;78956.78;4966060;28;20021;-66
2022/12/04 07:23:44;;;;;;;51.57;20.47;;;;;;;-142.75;100.00;78958.75;4965005;28;20030;-66
2022/12/04 07:26:13;;;;;;;52.23;21.10;;;;;;;-142.75;100.00;78956.78;4964330;28;20025;-65
2022/12/04 07:28:40;;;;;;;56.70;22.00;;;;;;;-142.75;100.00;78960.72;4967681;28;20026;-67
2022/12/04 07:31:11;;;;;;;51.30;20.53;;;;;;;-142.75;100.00;78944.97;4965869;28;20534;-64
2022/12/04 07:33:37;;;;;;;61.83;23.03;;;;;;;-142.75;100.00;78960.72;4966045;28;20029;-66
2022/12/04 07:36:06;;;;;;;49.72;21.33;;;;;;;-142.75;100.00;78978.47;4963912;28;20021;-66
2022/12/04 07:38:32;;;;;;;52.77;21.40;;;;;;;-142.75;100.00;78956.78;4965700;28;20029;-66
2022/12/04 07:40:59;;;;;;;51.20;21.67;;;;;;;-142.75;100.00;78984.38;4966097;28;20430;-65
2022/12/04 07:43:26;;;;;;;50.43;20.50;;;;;;;-142.75;100.00;78982.41;4966074;28;20063;-66
2022/12/04 07:45:51;;;;;;;54.83;20.67;;;;;;;-142.75;100.00;78972.56;4965723;28;20056;-66
2022/12/04 07:48:17;;;;;;;58.53;22.80;;;;;;;-142.75;100.00;78968.63;4964178;28;20361;-66
2022/12/04 07:50:43;;;;;;;49.35;18.98;;;;;;;-142.75;100.00;78990.28;4965444;28;20304;-65
2022/12/04 07:53:08;;;;;;;50.65;20.95;;;;;;;-142.75;100.00;78968.63;4965648;28;20429;-65
2022/12/04 07:55:35;;;;;;;52.88;21.83;;;;;;;-142.75;100.00;78970.59;4963786;28;20137;-67
2022/12/04 07:58:01;;;;;;;49.27;20.53;;;;;;;-142.75;100.00;78970.59;4964995;28;20065;-66
2022/12/04 08:00:26;;;;;;;51.95;22.67;;;;;;;-142.75;100.00;78974.53;4963738;28;20385;-65
2022/12/04 08:02:52;;;;;;;51.53;19.52;;;;;;;-142.75;100.00;78956.78;4965485;28;20044;-65
2022/12/04 08:05:17;;;;;;;54.03;21.73;;;;;;;-142.75;100.00;78990.28;4964125;28;20036;-65
2022/12/04 08:07:43;;;;;;;53.92;20.90;;;;;;;-142.75;100.00;78980.44;4962240;28;20434;-66
2022/12/04 08:10:09;;;;;;;48.50;19.52;;;;;;;-142.75;100.00;78962.69;4965799;28;20330;-66
2022/12/04 08:12:34;;;;;;;57.22;21.60;;;;;;;-142.75;100.00;78956.78;4965079;28;20339;-68
2022/12/04 08:15:00;;;;;;;56.08;20.75;;;;;;;-142.75;100.00;78958.75;4965740;28;20299;-67
2022/12/04 08:17:25;;;;;;;51.10;22.02;;;;;;;-142.75;100.00;78972.56;4965085;28;20296;-67
2022/12/04 08:19:51;;;;;;;49.05;20.40;;;;;;;-142.75;100.00;78976.50;4966115;28;20345;-67
2022/12/04 08:22:17;;;;;;;58.13;22.02;;;;;;;-142.75;100.00;78970.59;4963782;28;20323;-67
2022/12/04 08:24:42;;;;;;;57.95;19.95;;;;;;;-142.75;100.00;78950.88;4965643;28;20378;-67
2022/12/04 08:27:08;;;;;;;54.25;20.52;;;;;;;-142.75;100.00;78962.69;4965578;28;20468;-67
2022/12/04 08:29:33;;;;;;;54.13;23.17;;;;;;;-142.75;100.00;78960.72;4967017;28;20351;-67
2022/12/04 08:31:59;;;;;;;47.03;20.02;;;;;;;-142.75;100.00;78958.75;4965427;28;20339;-66
2022/12/04 08:34:24;;;;;;;47.65;18.77;;;;;;;-142.75;100.00;78976.50;4964439;28;20033;-63
2022/12/04 08:36:50;;;;;;;52.88;20.58;;;;;;;-142.75;100.00;78980.44;4963131;28;20025;-67
2022/12/04 08:39:15;;;;;;;51.08;20.73;;;;;;;-142.75;100.00;78972.56;4964680;28;20191;-67
2022/12/04 08:41:41;;;;;;;49.20;20.52;;;;;;;-142.75;100.00;78972.56;4965162;28;20324;-67
2022/12/04 08:44:06;;;;;;;47.65;19.30;;;;;;;-142.75;100.00;78964.69;4962962;28;20271;-66
2022/12/04 08:46:32;;;;;;;47.88;19.80;;;;;;;-142.75;100.00;78950.88;4964980;28;20103;-67
2022/12/04 08:48:57;;;;;;;53.10;21.10;;;;;;;-142.75;100.00;78941.03;4964672;28;20300;-67
2022/12/04 08:51:26;;;;;;;45.88;19.08;;;;;;;-142.75;100.00;78950.88;4964122;28;20307;-66
2022/12/04 08:53:56;;;;;;;50.57;20.77;;;;;;;-142.75;100.00;78948.91;4964350;28;20033;-66
2022/12/04 08:56:23;;;;;;;49.47;20.43;;;;;;;-142.75;100.00;78944.97;4961148;28;20033;-67
2022/12/04 08:58:48;;;;;;;51.17;20.63;;;;;;;-142.75;100.00;78956.78;4964499;28;20033;-65
2022/12/04 09:01:14;;;;;;;52.47;19.92;;;;;;;-142.75;100.00;78948.91;4963738;28;20032;-66
2022/12/04 09:03:40;;;;;;;47.65;20.55;;;;;;;-142.75;100.00;78980.44;4964485;28;20079;-65
2022/12/04 09:06:08;;;;;;;48.92;19.90;;;;;;;-142.75;100.00;78984.38;4964390;28;20245;-66
2022/12/04 09:08:34;;;;;;;51.23;20.73;;;;;;;-142.75;100.00;78984.38;4963901;28;20022;-65
2022/12/04 09:11:09;;;;;;;44.38;18.98;;;;;;;-142.75;100.00;78974.53;4961501;28;20025;-67
2022/12/04 09:13:35;;;;;;;52.60;21.00;;;;;;;-142.75;100.00;78970.59;4962194;28;20033;-66
2022/12/04 09:16:07;;;;;;;52.90;20.35;;;;;;;-142.75;100.00;78974.53;4963823;28;20460;-65
2022/12/04 09:18:33;;;;;;;50.47;19.83;;;;;;;-142.75;100.00;78976.50;4964435;28;20025;-66
2022/12/04 09:21:01;;;;;;;47.90;18.70;;;;;;;-142.75;100.00;78992.25;4964255;28;20538;-65
2022/12/04 09:23:26;;;;;;;49.00;21.13;;;;;;;-142.75;100.00;78998.16;4963815;28;20067;-66
2022/12/04 09:25:53;;;;;;;47.20;18.98;;;;;;;-142.75;100.00;78980.44;4963952;28;20021;-68
2022/12/04 09:28:19;;;;;;;49.87;21.37;;;;;;;-142.75;100.00;78968.63;4965574;28;20021;-67
2022/12/04 09:30:44;;;;;;;45.88;20.33;;;;;;;-142.75;100.00;78956.78;4961727;28;20331;-68
2022/12/04 09:33:10;;;;;;;50.40;19.45;;;;;;;-142.75;100.00;78954.81;4962918;28;20417;-67
2022/12/04 09:35:37;;;;;;;50.72;20.15;;;;;;;-142.75;100.00;78966.66;4963345;28;20381;-67
2022/12/04 09:38:03;;;;;;;50.13;20.17;;;;;;;-142.75;100.00;78948.91;4963459;28;20865;-66
2022/12/04 09:40:38;;;;;;;46.70;19.80;;;;;;;-142.75;100.00;78941.03;4963441;28;20132;-66
2022/12/04 09:43:17;;;;;;;46.63;20.40;;;;;;;-142.75;100.00;78933.16;4963717;28;20053;-66
2022/12/04 09:45:50;;;;;;;43.43;19.27;;;;;;;-142.75;100.00;78972.56;4963913;28;20056;-69
2022/12/04 09:48:19;;;;;;;51.97;20.40;;;;;;;-142.75;100.00;78956.78;4963719;28;20025;-66
2022/12/04 09:50:46;;;;;;;47.33;18.37;;;;;;;-142.75;100.00;78958.75;4961710;28;20033;-67
2022/12/04 09:53:24;;;;;;;45.80;19.13;;;;;;;-142.75;100.00;78970.59;4963946;28;20032;-66
2022/12/04 09:56:10;;;;;;;47.97;19.77;;;;;;;-142.75;100.00;78966.66;4963347;28;20110;-67
2022/12/04 09:58:50;;;;;;;34.72;14.63;;;;;;;-142.75;100.00;78954.81;4963934;28;20101;-66
2022/12/04 10:01:29;;;;;;;45.73;19.63;;;;;;;-142.75;100.00;78939.06;4962865;28;20148;-66
2022/12/04 10:03:55;;;;;;;51.63;20.17;;;;;;;-142.75;100.00;78956.78;4963610;28;20142;-67
2022/12/04 10:06:29;;;;;;;48.78;19.60;;;;;;;-142.75;100.00;78950.88;4963555;28;20421;-67
2022/12/04 10:09:03;;;;;;;54.97;20.30;;;;;;;-142.75;100.00;78958.75;4963577;28;20037;-66
2022/12/04 10:11:39;;;;;;;43.97;18.77;;;;;;;-142.75;100.00;78929.22;4963627;28;20021;-66
2022/12/04 10:14:20;;;;;;;46.05;18.35;;;;;;;-142.75;100.00;78929.22;4962686;28;20038;-69
2022/12/04 10:17:13;;;;;;;48.20;20.77;;;;;;;-142.75;100.00;78935.13;4961165;28;20029;-68
2022/12/04 10:19:54;;;;;;;54.10;20.50;;;;;;;-142.75;100.00;78933.16;4955224;28;20030;-69
2022/12/04 10:22:42;;;;;;;48.60;19.20;;;;;;;-142.75;100.00;78919.38;4962674;28;20038;-68
2022/12/04 10:25:14;;;;;;;53.10;21.07;;;;;;;-142.75;100.00;78941.03;4962774;28;20080;-67
2022/12/04 10:27:48;;;;;;;48.97;19.33;;;;;;;-142.75;100.00;78948.91;4962457;28;20021;-69
2022/12/04 10:30:20;;;;;;;47.77;19.03;;;;;;;-142.75;100.00;78941.03;4964130;28;20053;-67
2022/12/04 10:32:47;;;;;;;48.93;19.70;;;;;;;-142.75;100.00;78919.38;4963974;28;20048;-67
2022/12/04 10:35:24;;;;;;;54.13;21.20;;;;;;;-142.75;100.00;78933.16;4962944;28;20052;-66
2022/12/04 10:37:56;;;;;;;53.20;20.27;;;;;;;-142.75;100.00;78929.22;4962550;28;20047;-68
2022/12/04 10:40:29;;;;;;;49.03;19.57;;;;;;;-142.75;100.00;78907.56;4960824;28;20029;-67
2022/12/04 10:43:01;;;;;;;51.03;20.43;;;;;;;-142.75;100.00;78897.72;4962441;28;20136;-66
2022/12/04 10:45:27;;;;;;;45.77;18.90;;;;;;;-142.75;100.00;78917.41;4962122;28;20034;-66
2022/12/04 10:47:52;;;;;;;42.70;18.27;;;;;;;-142.75;100.00;78891.78;4964016;28;20052;-68
2022/12/04 10:50:21;;;;;;;45.25;18.65;;;;;;;-142.75;100.00;78889.81;4963278;28;20346;-65
2022/12/04 10:52:47;;;;;;;49.73;19.33;;;;;;;-142.75;100.00;78881.94;4959209;28;20033;-65
2022/12/04 10:55:13;;;;;;;48.78;19.50;;;;;;;-142.75;100.00;78889.81;4961902;28;20029;-66
2022/12/04 10:57:44;;;;;;;44.90;18.77;;;;;;;-142.75;100.00;78901.66;4956759;28;20267;-65
2022/12/04 11:00:39;;;;;;;43.00;18.93;;;;;;;-142.75;100.00;78889.81;4961831;28;20041;-65
2022/12/04 11:03:20;;;;;;;43.03;17.13;;;;;;;-142.75;100.00;78860.28;4946756;28;20037;-66
2022/12/04 11:05:55;;;;;;;52.13;19.67;;;;;;;-142.75;100.00;78846.50;4962769;28;20543;-66
2022/12/04 11:08:28;;;;;;;44.57;17.57;;;;;;;-142.75;100.00;78854.38;4960200;28;20025;-68
2022/12/04 11:11:24;;;;;;;43.53;17.60;;;;;;;-142.75;100.00;78844.53;4961054;28;20043;-69
2022/12/04 11:14:05;;;;;;;38.20;17.27;;;;;;;-142.75;100.00;78856.34;4942347;28;20045;-68
2022/12/04 11:16:37;;;;;;;41.20;16.60;;;;;;;-142.75;100.00;78878.00;4961022;28;20636;-68
2022/12/04 11:19:18;;;;;;;38.87;17.17;;;;;;;-142.75;100.00;78860.28;4961613;28;20052;-67
2022/12/04 11:21:44;;;;;;;34.10;14.30;;;;;;;-142.75;100.00;78866.19;4962568;28;20026;-67